الصفحة الرئيسية
METAR-TAF:

METAR-TAF

مطار :

قاعدة ثول الجوية

Thule, جرينلاند

دائرة عرض: 76-32N, خط طول: 068-42W, ارتفاع: 77 متر

مراقبة الطقس الحالي

تاريخ ووقت الإصدار 1ساعة و 12 دقيقة قبل الساعة 14:56UTC
ريح 6 عقدة من الشرق
درجة الحرارة -29°درجة مئوية
الرطوبة 68%
ضغط 1010 hPa
الرؤية 10 كم أو أكثر
سماء صافية

METAR: BGTL 231456Z AUTO 10006KT 9999 CLR M29/M33 A2983 RMK AO2 SLP095 T12951326 57022 TSNO CHINO RWY26 $

زمن: 12:08 (16:08 UTC)

توقعات

تاريخ ووقت الإصدار 6ساعات و 8 دقيقة قبل الساعة 10:00UTC
التوقعات صالحة من23 الساعة 10 UTC إلى 24 الساعة 16 UTC
ريح 9 عقدة من الشرق/الجنوب الشرقي, الاتجاه يتراوح بين الشرق و الجنوب
الرؤية 10 كم أو أكثر
غيوم قليلة على ارتفاع 1500 قدم
أصبح
من 24 الساعة 10 UTC إلى 24 الساعة 11 UTC
ريح 12 عقدة من الشرق/الجنوب الشرقي
الرؤية 10 كم أو أكثر
غيوم مفككة على ارتفاع 5000 قدم

TAF: BGTL 231000Z 2310/2416 12009KT 9999 FEW015 QNH2975INS WND 080V180 BECMG 2410/2411 12012KT 9999 BKN050 QNH2983INS TXM23/2311Z TNM29/2403Z

أرصاد الطقس والتوقعات من أكثر من 4000 مطار (تقارير الطقس للمطار METAR والتنبؤ بالطقس بالمطارTAF).

المحطات المتاحة هي النقط الصفراء والحمراء على الخريطة.

حرك المؤشر فوق النقطة لمعرفة اسم المحطة.

ثم انقر لمعرفة أرصاد وتوقعات الطقس.

لتغيير الخارطة: اضغط على الأزرار الخضراء مع رمز الصليب الأسود للتكبير. على الزر الأخضر مع شرطة للتصغير، أو على الأسهم الخضراء للخرائط المجاورة.


METAR-TAF: